Time;durP1;ratioP1;P1;durP2;ratioP2;P2;SDS_P1;SDS_P2;PMS_P1;PMS_P2;Temp;Humidity;BMP_temperature;BMP_pressure;BME280_temperature;BME280_humidity;BME280_pressure;Samples;Min_cycle;Max_cycle;Signal;HPM_P1;HPM_P2
2023/06/22 00:01:51;;;;;;;20.35;15.63;;;18.90;99.90;;;;;;5029779;28;20037;-72
2023/06/22 00:04:16;;;;;;;16.88;14.50;;;18.90;99.90;;;;;;5030824;28;20120;-72
2023/06/22 00:06:42;;;;;;;22.17;16.83;;;19.00;99.90;;;;;;5030565;28;20040;-72
2023/06/22 00:09:07;;;;;;;18.90;15.80;;;18.90;99.90;;;;;;5031282;28;20045;-72
2023/06/22 00:11:33;;;;;;;29.30;16.88;;;18.80;99.90;;;;;;5030632;28;20073;-72
2023/06/22 00:14:03;;;;;;;22.58;16.42;;;18.70;99.90;;;;;;5029822;28;20041;-72
2023/06/22 00:16:29;;;;;;;19.45;15.82;;;18.90;99.90;;;;;;5029591;28;20042;-72
2023/06/22 00:18:54;;;;;;;20.38;15.35;;;18.60;99.90;;;;;;5029019;28;20045;-72
2023/06/22 00:21:20;;;;;;;20.52;15.80;;;18.80;99.90;;;;;;5029129;28;20042;-72
2023/06/22 00:23:47;;;;;;;24.30;17.15;;;18.80;99.90;;;;;;5030837;28;20084;-72
2023/06/22 00:26:13;;;;;;;20.52;17.63;;;18.70;99.90;;;;;;5031084;28;20037;-72
2023/06/22 00:28:39;;;;;;;23.50;17.45;;;18.70;99.90;;;;;;5030540;28;20497;-72
2023/06/22 00:31:04;;;;;;;27.92;19.48;;;18.70;99.90;;;;;;5029151;28;20038;-72
2023/06/22 00:33:31;;;;;;;24.90;18.23;;;18.70;99.90;;;;;;5033574;28;20554;-72
2023/06/22 00:35:56;;;;;;;23.70;18.85;;;18.60;99.90;;;;;;5034252;28;20037;-72
2023/06/22 00:38:22;;;;;;;24.95;18.88;;;18.60;99.90;;;;;;5034228;28;20086;-72
2023/06/22 00:40:48;;;;;;;24.75;19.17;;;18.60;99.90;;;;;;5032460;28;20042;-72
2023/06/22 00:43:13;;;;;;;25.13;19.58;;;18.50;99.90;;;;;;5033312;28;20045;-72
2023/06/22 00:45:39;;;;;;;24.02;19.40;;;18.50;99.90;;;;;;5034195;28;20489;-72
2023/06/22 00:48:06;;;;;;;22.58;18.63;;;18.40;99.90;;;;;;5032448;28;20030;-71
2023/06/22 00:50:33;;;;;;;25.40;18.75;;;18.30;99.90;;;;;;5032259;28;20045;-72
2023/06/22 00:53:08;;;;;;;26.23;18.17;;;18.40;99.90;;;;;;5034169;28;20049;-72
2023/06/22 00:55:37;;;;;;;26.05;18.30;;;18.60;99.90;;;;;;5032990;28;20034;-72
2023/06/22 00:58:05;;;;;;;22.73;17.38;;;18.50;99.90;;;;;;5015934;28;20514;-72
2023/06/22 01:00:32;;;;;;;25.25;18.70;;;18.40;99.90;;;;;;5033496;28;20045;-72
2023/06/22 01:02:58;;;;;;;23.52;17.52;;;18.50;99.90;;;;;;5033728;28;20041;-72
2023/06/22 01:05:24;;;;;;;25.13;17.95;;;18.40;99.90;;;;;;5032789;28;20125;-72
2023/06/22 01:07:55;;;;;;;23.65;18.27;;;18.50;99.90;;;;;;5033653;28;20048;-72
2023/06/22 01:10:58;;;;;;;25.73;18.70;;;18.40;99.90;;;;;;5031963;28;20037;-72
2023/06/22 01:13:38;;;;;;;24.00;16.75;;;18.40;99.90;;;;;;5034154;28;20033;-72
2023/06/22 01:16:12;;;;;;;23.10;17.02;;;18.30;99.90;;;;;;5033886;28;20038;-72
2023/06/22 01:18:42;;;;;;;20.67;15.70;;;18.20;99.90;;;;;;5032001;28;20041;-72
2023/06/22 01:21:13;;;;;;;24.88;17.60;;;18.30;99.90;;;;;;5031793;28;20051;-72
2023/06/22 01:23:58;;;;;;;24.02;16.08;;;18.20;99.90;;;;;;5032183;28;20042;-72
2023/06/22 01:26:48;;;;;;;22.80;16.38;;;18.10;99.90;;;;;;5026793;28;20034;-72
2023/06/22 01:29:15;;;;;;;21.88;16.98;;;18.30;99.90;;;;;;5030738;28;20060;-72
2023/06/22 01:31:43;;;;;;;22.58;16.45;;;18.20;99.90;;;;;;5031947;28;20060;-73
2023/06/22 01:34:11;;;;;;;23.98;17.75;;;18.30;99.90;;;;;;5032052;28;20067;-72
2023/06/22 01:36:37;;;;;;;25.50;18.42;;;18.10;99.90;;;;;;5032919;28;20033;-72
2023/06/22 01:39:05;;;;;;;21.70;16.67;;;18.20;99.90;;;;;;5033311;28;20595;-72
2023/06/22 01:41:36;;;;;;;23.55;17.13;;;18.10;99.90;;;;;;5026930;28;20048;-72
2023/06/22 01:44:05;;;;;;;25.30;18.40;;;18.20;99.90;;;;;;5028762;28;20073;-72
2023/06/22 01:46:30;;;;;;;27.63;20.05;;;18.20;99.90;;;;;;5032380;28;20116;-72
2023/06/22 01:48:57;;;;;;;26.95;20.15;;;18.20;99.90;;;;;;5031666;28;20084;-72
2023/06/22 01:51:22;;;;;;;28.60;20.98;;;17.90;99.90;;;;;;5031180;28;20037;-72
2023/06/22 01:53:48;;;;;;;31.23;20.48;;;18.00;99.90;;;;;;5031651;28;20083;-72
2023/06/22 01:56:17;;;;;;;28.98;20.73;;;18.10;99.90;;;;;;5031759;28;20045;-72
2023/06/22 01:58:52;;;;;;;27.48;21.20;;;17.90;99.90;;;;;;5032538;28;20048;-72
2023/06/22 02:01:24;;;;;;;30.48;22.52;;;18.00;99.90;;;;;;5031255;28;20041;-72
2023/06/22 02:04:03;;;;;;;31.33;22.33;;;18.00;99.90;;;;;;5024876;28;20402;-71
2023/06/22 02:06:36;;;;;;;30.50;23.13;;;17.80;99.90;;;;;;5011746;28;20042;-72
2023/06/22 02:09:11;;;;;;;33.03;25.05;;;17.80;99.90;;;;;;5011883;28;20037;-72
2023/06/22 02:11:40;;;;;;;30.25;23.40;;;17.90;99.90;;;;;;5012470;28;20049;-74
2023/06/22 02:14:06;;;;;;;31.33;24.67;;;17.80;99.90;;;;;;5012838;28;20042;-72
2023/06/22 02:16:32;;;;;;;31.85;25.70;;;17.90;99.90;;;;;;5011199;28;20046;-72
2023/06/22 02:19:02;;;;;;;35.05;27.42;;;17.90;99.90;;;;;;5012887;28;20042;-72
2023/06/22 02:21:28;;;;;;;34.38;27.63;;;17.70;99.90;;;;;;5012265;28;20409;-72
2023/06/22 02:23:54;;;;;;;33.67;26.20;;;17.70;99.90;;;;;;5011300;28;20454;-72
2023/06/22 02:26:20;;;;;;;35.55;27.23;;;17.60;99.90;;;;;;5011613;28;20128;-72
2023/06/22 02:28:45;;;;;;;40.35;30.27;;;17.70;99.90;;;;;;5011014;28;20663;-72
2023/06/22 02:31:11;;;;;;;35.60;28.13;;;17.70;99.90;;;;;;5010801;28;20042;-72
2023/06/22 02:33:37;;;;;;;38.92;29.63;;;17.80;99.90;;;;;;5011107;28;20038;-72
2023/06/22 02:36:08;;;;;;;34.78;27.38;;;17.60;99.90;;;;;;5025529;28;20043;-72
2023/06/22 02:38:36;;;;;;;35.13;25.42;;;17.60;99.90;;;;;;5023846;28;20053;-72
2023/06/22 02:41:02;;;;;;;30.90;24.77;;;17.50;99.90;;;;;;5030234;28;20493;-72
2023/06/22 02:43:28;;;;;;;31.58;23.85;;;17.50;99.90;;;;;;5032211;28;20045;-72
2023/06/22 02:45:53;;;;;;;29.85;23.17;;;17.40;99.90;;;;;;5031010;28;20037;-72
2023/06/22 02:48:19;;;;;;;29.95;24.17;;;17.30;99.90;;;;;;5031630;28;20044;-72
2023/06/22 02:50:44;;;;;;;31.60;23.48;;;17.60;99.90;;;;;;5030097;28;20394;-72
2023/06/22 02:53:10;;;;;;;30.83;24.25;;;17.40;99.90;;;;;;5030798;28;20040;-72
2023/06/22 02:55:36;;;;;;;38.95;26.35;;;17.50;99.90;;;;;;5030227;28;20543;-72
2023/06/22 02:58:04;;;;;;;34.72;27.85;;;17.40;99.90;;;;;;5030175;28;20037;-72
2023/06/22 03:00:31;;;;;;;35.17;25.85;;;17.20;99.90;;;;;;5030346;28;20072;-72
2023/06/22 03:02:57;;;;;;;32.53;25.10;;;17.20;99.90;;;;;;5030260;28;20053;-72
2023/06/22 03:05:23;;;;;;;31.25;24.00;;;17.10;99.90;;;;;;5031688;28;20457;-72
2023/06/22 03:07:49;;;;;;;32.65;25.13;;;17.30;99.90;;;;;;5029727;28;20128;-72
2023/06/22 03:10:15;;;;;;;34.47;26.42;;;17.30;99.90;;;;;;5031213;28;20041;-72
2023/06/22 03:12:42;;;;;;;33.10;27.83;;;17.30;99.90;;;;;;5013758;28;20505;-72
2023/06/22 03:15:10;;;;;;;36.60;28.52;;;17.30;99.90;;;;;;5031543;28;20030;-72
2023/06/22 03:17:38;;;;;;;35.40;27.95;;;17.10;99.90;;;;;;5029675;28;20515;-72
2023/06/22 03:20:09;;;;;;;35.17;27.92;;;17.10;99.90;;;;;;5029601;28;20041;-72
2023/06/22 03:22:41;;;;;;;36.15;26.63;;;17.20;99.90;;;;;;4997824;28;20041;-72
2023/06/22 03:25:13;;;;;;;35.63;27.90;;;17.20;99.90;;;;;;5030035;28;20130;-72
2023/06/22 03:27:39;;;;;;;40.20;29.70;;;17.10;99.90;;;;;;5029651;28;20041;-72
2023/06/22 03:30:06;;;;;;;37.67;29.20;;;17.20;99.90;;;;;;5029558;28;20498;-72
2023/06/22 03:32:32;;;;;;;36.47;27.13;;;17.10;99.90;;;;;;5030022;28;20045;-72
2023/06/22 03:34:58;;;;;;;34.17;28.35;;;17.10;99.90;;;;;;5030843;28;20041;-72
2023/06/22 03:37:25;;;;;;;38.85;28.67;;;17.20;99.90;;;;;;5030990;28;20037;-72
2023/06/22 03:39:51;;;;;;;33.65;26.63;;;17.10;99.90;;;;;;5029530;28;20041;-72
2023/06/22 03:42:17;;;;;;;38.50;27.50;;;17.30;99.90;;;;;;5029959;28;20125;-72
2023/06/22 03:44:42;;;;;;;36.15;27.25;;;17.10;99.90;;;;;;5013435;28;20069;-72
2023/06/22 03:47:09;;;;;;;36.78;27.20;;;17.30;99.90;;;;;;5013060;28;20037;-72
2023/06/22 03:49:35;;;;;;;37.88;27.92;;;17.40;99.90;;;;;;5030441;28;20489;-74
2023/06/22 03:52:01;;;;;;;41.13;29.05;;;17.20;99.90;;;;;;5029724;28;20072;-72
2023/06/22 03:54:28;;;;;;;37.10;27.42;;;17.40;99.90;;;;;;5013640;28;20046;-72
2023/06/22 03:56:53;;;;;;;36.58;26.02;;;17.40;99.90;;;;;;5029657;28;20041;-72
2023/06/22 03:59:19;;;;;;;38.00;27.17;;;17.30;99.90;;;;;;5029257;28;20125;-72
2023/06/22 04:01:44;;;;;;;37.00;26.85;;;17.50;99.90;;;;;;5030621;28;20544;-72
2023/06/22 04:04:10;;;;;;;44.13;31.20;;;17.50;99.90;;;;;;5029430;28;20041;-74
2023/06/22 04:06:36;;;;;;;39.95;29.40;;;17.40;99.90;;;;;;5030825;28;20041;-72
2023/06/22 04:09:01;;;;;;;41.60;28.77;;;17.50;99.90;;;;;;5033434;28;20460;-72
2023/06/22 04:11:27;;;;;;;41.75;31.20;;;17.50;99.90;;;;;;5033095;28;20041;-72
2023/06/22 04:13:53;;;;;;;44.20;29.60;;;17.50;99.90;;;;;;5034833;28;20497;-72
2023/06/22 04:16:18;;;;;;;42.17;29.95;;;17.60;99.90;;;;;;5033466;28;20053;-72
2023/06/22 04:18:44;;;;;;;41.17;29.23;;;17.50;99.90;;;;;;5033063;28;20033;-72
2023/06/22 04:21:10;;;;;;;36.13;26.67;;;17.60;99.90;;;;;;5034108;28;20045;-74
2023/06/22 04:23:36;;;;;;;36.65;26.77;;;17.70;99.90;;;;;;5033341;28;20048;-72
2023/06/22 04:26:01;;;;;;;34.63;25.55;;;17.70;99.90;;;;;;5017218;28;20120;-72
2023/06/22 04:28:27;;;;;;;43.13;31.95;;;18.00;99.90;;;;;;5033141;28;20095;-74
2023/06/22 04:30:58;;;;;;;44.75;33.55;;;17.70;99.90;;;;;;5033982;28;20038;-73
2023/06/22 04:33:23;;;;;;;47.15;34.35;;;17.80;99.90;;;;;;5034567;28;20037;-72
2023/06/22 04:35:49;;;;;;;49.13;35.95;;;17.90;99.90;;;;;;5033639;28;20048;-72
2023/06/22 04:38:14;;;;;;;56.08;36.53;;;18.10;99.90;;;;;;5034204;28;20091;-72
2023/06/22 04:40:40;;;;;;;52.10;37.70;;;17.90;99.90;;;;;;5032468;28;20045;-72
2023/06/22 04:43:06;;;;;;;56.08;38.42;;;18.10;99.90;;;;;;5033103;28;20092;-72
2023/06/22 04:45:37;;;;;;;57.33;37.75;;;18.20;99.90;;;;;;5032969;28;20561;-72
2023/06/22 04:48:03;;;;;;;62.50;38.67;;;18.20;99.90;;;;;;5016120;28;20037;-72
2023/06/22 04:50:29;;;;;;;59.50;39.38;;;18.10;99.90;;;;;;5032428;28;20037;-72
2023/06/22 04:52:55;;;;;;;57.70;38.90;;;18.50;99.90;;;;;;5016372;28;20037;-72
2023/06/22 04:55:20;;;;;;;52.67;36.22;;;18.60;99.90;;;;;;5033074;28;20081;-72
2023/06/22 04:57:50;;;;;;;51.85;34.05;;;18.60;99.90;;;;;;5032288;28;20045;-72
2023/06/22 05:00:22;;;;;;;49.38;35.08;;;18.60;99.90;;;;;;5015886;28;20044;-72
2023/06/22 05:02:49;;;;;;;41.90;30.63;;;18.70;99.90;;;;;;5032639;28;20044;-72
2023/06/22 05:05:15;;;;;;;43.50;30.40;;;18.80;99.90;;;;;;5016396;28;20158;-72
2023/06/22 05:07:43;;;;;;;37.97;27.95;;;19.10;99.90;;;;;;5032506;28;20409;-72
2023/06/22 05:10:12;;;;;;;42.67;27.88;;;19.50;99.90;;;;;;5031951;28;20042;-72
2023/06/22 05:12:38;;;;;;;34.30;27.17;;;19.60;99.90;;;;;;5032320;28;20044;-72
2023/06/22 05:15:05;;;;;;;31.95;24.67;;;19.70;99.90;;;;;;5032326;28;20048;-72
2023/06/22 05:17:31;;;;;;;34.28;25.33;;;19.80;99.90;;;;;;5032102;28;20424;-72
2023/06/22 05:19:56;;;;;;;32.42;23.88;;;20.10;99.90;;;;;;5031674;28;20046;-72
2023/06/22 05:22:22;;;;;;;29.35;22.75;;;20.30;99.90;;;;;;5032600;28;20128;-72
2023/06/22 05:24:47;;;;;;;27.27;21.92;;;20.20;99.90;;;;;;5015646;28;20033;-73
2023/06/22 05:27:13;;;;;;;29.08;22.20;;;20.40;99.90;;;;;;5031858;28;20502;-72
2023/06/22 05:29:39;;;;;;;25.15;19.52;;;20.60;99.90;;;;;;5031707;28;20400;-72
2023/06/22 05:32:06;;;;;;;22.67;17.63;;;20.60;99.90;;;;;;5015573;28;20569;-72
2023/06/22 05:34:32;;;;;;;22.50;18.27;;;20.80;99.90;;;;;;5032269;28;20437;-73
2023/06/22 05:37:01;;;;;;;21.48;18.48;;;20.90;99.90;;;;;;5031916;28;20038;-72
2023/06/22 05:39:26;;;;;;;18.08;15.45;;;21.10;99.90;;;;;;5031504;28;20078;-72
2023/06/22 05:41:52;;;;;;;23.15;16.13;;;21.20;99.90;;;;;;5032056;28;20479;-72
2023/06/22 05:44:18;;;;;;;20.15;16.00;;;21.40;99.90;;;;;;5031792;28;20543;-73
2023/06/22 05:46:46;;;;;;;19.10;16.08;;;21.40;99.90;;;;;;5031432;28;20042;-71
2023/06/22 05:49:15;;;;;;;21.20;16.70;;;21.40;99.90;;;;;;5031590;28;20052;-73
2023/06/22 05:51:41;;;;;;;22.67;15.65;;;21.50;99.90;;;;;;5031548;28;20056;-73
2023/06/22 05:54:08;;;;;;;19.67;15.75;;;21.60;99.90;;;;;;5015293;28;20125;-73
2023/06/22 05:56:34;;;;;;;18.98;14.10;;;21.60;99.90;;;;;;5031162;28;20512;-73
2023/06/22 05:58:59;;;;;;;17.05;13.27;;;21.60;99.90;;;;;;5031530;28;20045;-73
2023/06/22 06:01:25;;;;;;;16.80;12.52;;;21.70;99.90;;;;;;5031330;28;20068;-73
2023/06/22 06:03:52;;;;;;;17.05;12.45;;;21.80;99.90;;;;;;5031777;28;20041;-73
2023/06/22 06:06:20;;;;;;;13.73;11.40;;;21.90;99.90;;;;;;5031556;28;20049;-73
2023/06/22 06:08:45;;;;;;;14.02;11.55;;;22.10;99.90;;;;;;5031198;28;20037;-73
2023/06/22 06:11:11;;;;;;;13.90;10.77;;;22.40;99.90;;;;;;5030720;28;20092;-73
2023/06/22 06:13:36;;;;;;;16.45;11.40;;;22.40;99.90;;;;;;5031273;28;20047;-73
2023/06/22 06:16:02;;;;;;;14.27;10.25;;;22.50;99.90;;;;;;5031289;28;20033;-73
2023/06/22 06:18:28;;;;;;;11.13;9.75;;;22.60;99.90;;;;;;5030951;28;20452;-73
2023/06/22 06:20:53;;;;;;;14.02;9.43;;;22.60;99.90;;;;;;5030776;28;20045;-73
2023/06/22 06:23:19;;;;;;;12.63;9.85;;;22.50;99.90;;;;;;5031225;28;20076;-73
2023/06/22 06:25:44;;;;;;;13.02;10.15;;;22.60;99.90;;;;;;5031266;28;20038;-74
2023/06/22 06:28:10;;;;;;;12.52;9.82;;;22.80;99.90;;;;;;5014318;28;20080;-74
2023/06/22 06:30:37;;;;;;;14.57;10.18;;;22.80;99.90;;;;;;5029996;28;20065;-74
2023/06/22 06:33:04;;;;;;;14.52;10.90;;;22.60;99.90;;;;;;5031262;28;20080;-74
2023/06/22 06:35:30;;;;;;;13.73;10.50;;;22.70;99.90;;;;;;5014564;28;20493;-74
2023/06/22 06:37:55;;;;;;;12.48;10.15;;;22.70;99.90;;;;;;5030578;28;20044;-73
2023/06/22 06:40:21;;;;;;;13.43;10.13;;;22.90;99.90;;;;;;5018802;28;20121;-73
2023/06/22 06:42:48;;;;;;;15.82;11.73;;;22.90;99.90;;;;;;5011027;28;20044;-74
2023/06/22 06:45:20;;;;;;;13.25;10.85;;;23.00;99.90;;;;;;4994483;28;20176;-74
2023/06/22 06:47:46;;;;;;;15.40;12.20;;;23.10;99.90;;;;;;5013316;28;20041;-73
2023/06/22 06:50:12;;;;;;;16.85;11.63;;;23.20;99.90;;;;;;5013101;28;20038;-73
2023/06/22 06:52:38;;;;;;;14.98;11.15;;;23.40;99.90;;;;;;5013247;28;20112;-74
2023/06/22 06:55:07;;;;;;;18.90;11.20;;;23.50;99.90;;;;;;4994788;28;20120;-73
2023/06/22 06:57:33;;;;;;;14.93;11.75;;;23.60;99.90;;;;;;5013202;28;20050;-73
2023/06/22 06:59:59;;;;;;;14.77;10.98;;;23.70;99.90;;;;;;5020819;28;20491;-73
2023/06/22 07:02:27;;;;;;;15.85;11.00;;;23.80;99.90;;;;;;5018595;28;20116;-73
2023/06/22 07:04:55;;;;;;;13.38;10.65;;;23.90;99.90;;;;;;5011002;28;20413;-74
2023/06/22 07:07:20;;;;;;;13.13;9.52;;;24.10;99.90;;;;;;5010369;28;20049;-73
2023/06/22 07:09:46;;;;;;;10.70;7.95;;;24.10;99.90;;;;;;5010202;28;20425;-73
2023/06/22 07:12:12;;;;;;;11.25;9.07;;;24.20;99.90;;;;;;5010685;28;20029;-73
2023/06/22 07:14:37;;;;;;;11.35;7.90;;;24.10;99.90;;;;;;5011058;28;20136;-73
2023/06/22 07:17:03;;;;;;;10.43;7.70;;;24.20;99.90;;;;;;4997009;28;20112;-73
2023/06/22 07:19:30;;;;;;;11.90;8.05;;;24.00;99.90;;;;;;5029964;28;20180;-73
2023/06/22 07:21:55;;;;;;;10.15;6.47;;;24.30;99.90;;;;;;5030161;28;20505;-73
2023/06/22 07:24:21;;;;;;;8.85;6.70;;;24.30;99.90;;;;;;5030322;28;20048;-73
2023/06/22 07:26:49;;;;;;;9.40;7.85;;;24.40;99.80;;;;;;5030126;28;20445;-73
2023/06/22 07:29:19;;;;;;;8.82;6.43;;;24.30;99.00;;;;;;5030186;28;20049;-73
2023/06/22 07:31:45;;;;;;;11.32;8.07;;;24.20;98.70;;;;;;5030215;28;20119;-73
2023/06/22 07:34:11;;;;;;;12.57;9.48;;;24.10;98.90;;;;;;5030167;28;20472;-73
2023/06/22 07:36:37;;;;;;;10.95;7.10;;;23.80;99.80;;;;;;5029152;28;20057;-74
2023/06/22 07:39:03;;;;;;;8.55;6.78;;;23.80;99.90;;;;;;5019287;28;20041;-73
2023/06/22 07:41:29;;;;;;;8.73;6.78;;;23.80;99.90;;;;;;5023726;28;20073;-73
2023/06/22 07:43:55;;;;;;;9.30;8.15;;;23.90;99.90;;;;;;5023673;28;20041;-73
2023/06/22 07:46:21;;;;;;;9.63;6.85;;;23.80;99.80;;;;;;5023075;28;20045;-73
2023/06/22 07:48:46;;;;;;;10.95;8.70;;;24.00;99.90;;;;;;5021739;28;20480;-72
2023/06/22 07:51:12;;;;;;;9.05;6.32;;;24.40;99.90;;;;;;5013685;28;20103;-74
2023/06/22 07:53:40;;;;;;;11.05;7.50;;;24.70;98.20;;;;;;5014154;28;20390;-73
2023/06/22 07:56:07;;;;;;;10.00;7.57;;;24.90;97.60;;;;;;5014238;28;20053;-73
2023/06/22 07:58:32;;;;;;;9.10;6.40;;;24.90;96.70;;;;;;4997917;28;20520;-73
2023/06/22 08:00:59;;;;;;;9.75;7.53;;;25.00;96.20;;;;;;5013682;28;20046;-72
2023/06/22 08:03:24;;;;;;;5.93;5.32;;;25.10;96.00;;;;;;5014129;28;20045;-73
2023/06/22 08:05:50;;;;;;;8.65;5.93;;;25.30;95.20;;;;;;5014020;28;20144;-73
2023/06/22 08:08:16;;;;;;;10.98;6.57;;;25.40;94.60;;;;;;5013943;28;20044;-71
2023/06/22 08:10:42;;;;;;;7.57;6.05;;;25.40;94.60;;;;;;5013299;28;20038;-72
2023/06/22 08:13:08;;;;;;;10.60;6.38;;;25.40;94.00;;;;;;5013933;28;20038;-72
2023/06/22 08:15:33;;;;;;;9.75;6.65;;;25.50;93.40;;;;;;5014144;28;20037;-72
2023/06/22 08:18:00;;;;;;;7.10;5.45;;;25.40;92.80;;;;;;5013435;28;20085;-73
2023/06/22 08:20:26;;;;;;;8.48;5.35;;;25.40;92.60;;;;;;5013256;28;20092;-73
2023/06/22 08:22:53;;;;;;;7.80;5.15;;;25.50;92.80;;;;;;5013937;28;20042;-73
2023/06/22 08:25:19;;;;;;;7.25;5.40;;;25.60;92.40;;;;;;4997351;28;20084;-73
2023/06/22 08:27:46;;;;;;;8.70;6.45;;;25.90;92.10;;;;;;4997121;28;20082;-73
2023/06/22 08:30:12;;;;;;;7.10;5.97;;;26.00;91.70;;;;;;4996705;28;20048;-72
2023/06/22 08:32:38;;;;;;;5.68;4.60;;;25.80;92.00;;;;;;5004845;28;20113;-73
2023/06/22 08:35:06;;;;;;;8.23;6.00;;;26.20;91.80;;;;;;5024620;28;20041;-73
2023/06/22 08:37:35;;;;;;;6.88;5.38;;;26.30;91.60;;;;;;5033112;28;20049;-74
2023/06/22 08:40:03;;;;;;;6.60;4.60;;;26.20;90.80;;;;;;5032346;28;20116;-73
2023/06/22 08:42:29;;;;;;;6.60;4.93;;;26.30;90.30;;;;;;5023722;28;20091;-73
2023/06/22 08:44:55;;;;;;;5.32;3.97;;;26.30;90.40;;;;;;5031682;28;20456;-73
2023/06/22 08:47:21;;;;;;;6.43;5.40;;;26.50;90.50;;;;;;5016607;28;20548;-73
2023/06/22 08:49:47;;;;;;;10.10;6.00;;;26.50;88.90;;;;;;5032425;28;20045;-72
2023/06/22 08:52:12;;;;;;;7.00;5.63;;;26.40;88.70;;;;;;5032867;28;20064;-73
2023/06/22 08:54:38;;;;;;;9.07;6.35;;;26.40;89.40;;;;;;5015192;28;20038;-73
2023/06/22 08:57:04;;;;;;;12.23;5.93;;;26.20;89.90;;;;;;5022690;28;20068;-73
2023/06/22 08:59:29;;;;;;;6.95;4.93;;;26.30;90.40;;;;;;5006330;28;20041;-73
2023/06/22 09:01:56;;;;;;;8.48;5.43;;;26.30;90.10;;;;;;5025043;28;20032;-73
2023/06/22 09:04:22;;;;;;;11.23;6.63;;;26.50;89.80;;;;;;4996569;28;20052;-73
2023/06/22 09:06:49;;;;;;;9.13;4.90;;;26.70;89.00;;;;;;5012780;28;20421;-74
2023/06/22 09:09:16;;;;;;;7.88;5.95;;;26.90;89.00;;;;;;5012796;28;20481;-73
2023/06/22 09:11:42;;;;;;;9.73;5.75;;;26.80;87.20;;;;;;4996320;28;20409;-74
2023/06/22 09:14:08;;;;;;;6.80;4.80;;;26.80;86.70;;;;;;5012792;28;20046;-73
2023/06/22 09:16:34;;;;;;;8.02;4.70;;;26.80;86.40;;;;;;5012344;28;20041;-74
2023/06/22 09:19:00;;;;;;;7.50;5.15;;;27.00;85.90;;;;;;5014165;28;20038;-74
2023/06/22 09:21:26;;;;;;;8.60;5.88;;;27.20;86.10;;;;;;5012212;28;20045;-74
2023/06/22 09:23:51;;;;;;;6.97;4.70;;;27.10;84.30;;;;;;5012314;28;20410;-74
2023/06/22 09:26:22;;;;;;;8.95;5.63;;;27.20;85.40;;;;;;5012501;28;20044;-73
2023/06/22 09:28:48;;;;;;;6.78;4.57;;;27.30;83.80;;;;;;5012289;28;20069;-74
2023/06/22 09:31:13;;;;;;;8.82;5.18;;;27.30;83.70;;;;;;5011938;28;20081;-73
2023/06/22 09:33:40;;;;;;;8.15;4.75;;;27.10;84.60;;;;;;5012339;28;20041;-73
2023/06/22 09:36:09;;;;;;;11.48;6.45;;;27.30;82.90;;;;;;5012300;28;20406;-74
2023/06/22 09:38:38;;;;;;;8.40;4.97;;;27.10;83.60;;;;;;5011959;28;20498;-73
2023/06/22 09:41:05;;;;;;;7.10;4.85;;;27.10;83.20;;;;;;4995391;28;20042;-72
2023/06/22 09:43:32;;;;;;;7.95;5.93;;;27.10;82.20;;;;;;5012016;28;20049;-74
2023/06/22 09:45:58;;;;;;;9.57;6.03;;;26.90;82.60;;;;;;4995800;28;20417;-73
2023/06/22 09:48:23;;;;;;;8.40;5.80;;;26.80;83.00;;;;;;4995533;28;20037;-73
2023/06/22 09:50:49;;;;;;;8.20;5.38;;;26.70;83.00;;;;;;5011589;28;20064;-73
2023/06/22 09:53:14;;;;;;;7.00;4.55;;;26.90;83.20;;;;;;5011978;28;20041;-74
2023/06/22 09:55:40;;;;;;;5.60;4.18;;;26.80;85.40;;;;;;4995668;28;20048;-74
2023/06/22 09:58:05;;;;;;;7.60;5.22;;;26.90;84.10;;;;;;5011537;28;20042;-74
2023/06/22 10:00:31;;;;;;;8.38;5.10;;;27.10;84.20;;;;;;5011416;28;20135;-74
2023/06/22 10:02:57;;;;;;;7.47;4.88;;;27.10;84.20;;;;;;5011763;28;20450;-74
2023/06/22 10:05:23;;;;;;;7.00;5.72;;;27.10;82.30;;;;;;4994663;28;20520;-74
2023/06/22 10:07:49;;;;;;;9.07;5.57;;;27.00;81.50;;;;;;5011702;28;20043;-74
2023/06/22 10:10:15;;;;;;;6.60;4.50;;;26.90;82.00;;;;;;5011246;28;20552;-74
2023/06/22 10:12:48;;;;;;;9.00;4.80;;;26.90;81.70;;;;;;4995283;28;20041;-74
2023/06/22 10:15:14;;;;;;;6.45;5.07;;;26.90;82.50;;;;;;4995522;28;20049;-74
2023/06/22 10:17:40;;;;;;;6.43;4.57;;;26.70;82.50;;;;;;5012878;28;20042;-74
2023/06/22 10:20:18;;;;;;;8.80;5.53;;;26.80;83.00;;;;;;5012308;28;20068;-74
2023/06/22 10:22:45;;;;;;;8.88;5.60;;;26.70;82.60;;;;;;4995334;28;20042;-73
2023/06/22 10:25:12;;;;;;;9.32;5.32;;;26.40;82.80;;;;;;4995056;28;20042;-74
2023/06/22 10:27:44;;;;;;;7.60;5.97;;;26.60;82.90;;;;;;5109270;27;20892;-74
2023/06/22 10:30:15;;;;;;;9.38;6.30;;;26.60;84.10;;;;;;5107828;28;20105;-74
2023/06/22 10:32:42;;;;;;;8.70;5.82;;;26.70;84.80;;;;;;5108236;28;20036;-74
2023/06/22 10:35:10;;;;;;;7.68;5.05;;;26.60;82.90;;;;;;5091446;28;20040;-75
2023/06/22 10:37:36;;;;;;;6.65;5.38;;;26.70;84.90;;;;;;5108980;28;20505;-75
2023/06/22 10:40:03;;;;;;;9.38;6.15;;;26.90;84.80;;;;;;5107682;28;20048;-74
2023/06/22 10:42:29;;;;;;;8.02;5.22;;;26.70;84.10;;;;;;5108184;28;20040;-72
2023/06/22 10:44:55;;;;;;;8.13;5.75;;;26.70;83.90;;;;;;5107826;28;20047;-74
2023/06/22 10:47:20;;;;;;;7.95;5.68;;;26.90;84.00;;;;;;5089784;28;20044;-74
2023/06/22 10:49:46;;;;;;;6.68;5.30;;;26.90;82.90;;;;;;5087038;28;20036;-74
2023/06/22 10:52:11;;;;;;;7.57;6.00;;;27.00;83.40;;;;;;5070380;28;20070;-73
2023/06/22 10:54:38;;;;;;;8.40;6.78;;;27.00;82.50;;;;;;5087303;28;20408;-73
2023/06/22 10:57:04;;;;;;;8.30;6.40;;;26.80;82.40;;;;;;5088495;28;20100;-74
2023/06/22 10:59:30;;;;;;;10.75;6.32;;;26.60;83.80;;;;;;5087100;28;20219;-74
2023/06/22 11:01:57;;;;;;;10.35;6.25;;;26.60;84.30;;;;;;5088545;28;20044;-74
2023/06/22 11:04:23;;;;;;;8.27;6.90;;;26.60;85.30;;;;;;5070344;28;20040;-74
2023/06/22 11:06:49;;;;;;;12.43;7.38;;;26.40;84.30;;;;;;5086723;28;20048;-74
2023/06/22 11:09:20;;;;;;;8.00;7.00;;;26.50;82.90;;;;;;5086797;28;20512;-74
2023/06/22 11:11:50;;;;;;;9.38;6.32;;;26.50;83.80;;;;;;5088510;28;20384;-73
2023/06/22 11:14:15;;;;;;;8.63;6.95;;;26.40;84.90;;;;;;5086975;28;20044;-74
2023/06/22 11:16:41;;;;;;;8.38;6.40;;;26.40;84.80;;;;;;5086560;28;20043;-74
2023/06/22 11:19:06;;;;;;;8.77;6.32;;;26.50;84.90;;;;;;5069976;28;20097;-74
2023/06/22 11:21:32;;;;;;;10.60;6.53;;;26.40;85.00;;;;;;5086289;28;20043;-74
2023/06/22 11:23:58;;;;;;;8.52;6.97;;;26.40;83.10;;;;;;5086823;28;20121;-74
2023/06/22 11:26:27;;;;;;;8.05;6.05;;;26.50;83.40;;;;;;5088101;28;20119;-73
2023/06/22 11:28:52;;;;;;;7.93;5.75;;;26.50;83.30;;;;;;5086628;28;20052;-74
2023/06/22 11:31:18;;;;;;;10.75;7.60;;;26.40;83.50;;;;;;5086193;28;20048;-74
2023/06/22 11:33:45;;;;;;;8.20;6.90;;;26.20;82.70;;;;;;5087841;28;20036;-72
2023/06/22 11:36:11;;;;;;;6.18;5.32;;;26.20;83.40;;;;;;5095564;28;20051;-74
2023/06/22 11:38:38;;;;;;;8.68;6.03;;;26.30;84.50;;;;;;5067919;28;20122;-74
2023/06/22 11:41:05;;;;;;;10.20;5.97;;;26.10;85.10;;;;;;5083405;28;20403;-75
2023/06/22 11:43:31;;;;;;;7.78;5.05;;;26.20;85.50;;;;;;5094572;22;20068;-70
2023/06/22 11:45:57;;;;;;;8.00;4.85;;;26.20;85.20;;;;;;5063115;28;20079;-70
2023/06/22 11:48:24;;;;;;;7.15;5.72;;;26.30;85.00;;;;;;5046153;28;20078;-70
2023/06/22 11:50:49;;;;;;;6.82;4.97;;;26.20;83.90;;;;;;5061378;28;20077;-71
2023/06/22 11:53:17;;;;;;;7.07;5.70;;;26.30;84.00;;;;;;5059387;28;20128;-71
2023/06/22 11:55:45;;;;;;;9.57;5.85;;;26.20;83.20;;;;;;5036483;28;20045;-71
2023/06/22 11:58:11;;;;;;;8.38;4.80;;;26.30;82.00;;;;;;5053797;28;20059;-71
2023/06/22 12:00:37;;;;;;;6.85;4.95;;;26.30;81.70;;;;;;5035639;28;20644;-73
2023/06/22 12:03:03;;;;;;;7.68;4.47;;;26.20;82.00;;;;;;5035852;28;20028;-74
2023/06/22 12:05:29;;;;;;;6.45;4.40;;;26.30;82.40;;;;;;5035913;28;20493;-74
2023/06/22 12:07:54;;;;;;;6.32;5.55;;;26.40;82.20;;;;;;5053542;28;20116;-74
2023/06/22 12:10:21;;;;;;;10.05;6.00;;;26.30;86.00;;;;;;5035356;28;20060;-73
2023/06/22 12:12:47;;;;;;;5.80;4.50;;;26.30;86.90;;;;;;5053381;28;20044;-73
2023/06/22 12:15:12;;;;;;;6.68;4.60;;;26.30;87.60;;;;;;5053219;28;20041;-74
2023/06/22 12:17:38;;;;;;;7.32;5.63;;;26.40;87.40;;;;;;5034698;28;20065;-73
2023/06/22 12:20:05;;;;;;;6.38;5.38;;;26.50;85.50;;;;;;5022397;28;20029;-72
2023/06/22 12:22:34;;;;;;;8.95;6.47;;;26.30;86.50;;;;;;5062185;28;20033;-73
2023/06/22 12:25:00;;;;;;;7.88;5.90;;;26.20;88.80;;;;;;5062332;28;20044;-73
2023/06/22 12:27:26;;;;;;;7.93;5.78;;;26.10;90.20;;;;;;5063060;28;20111;-73
2023/06/22 12:29:51;;;;;;;10.55;6.70;;;25.90;90.60;;;;;;5064007;28;20124;-72
2023/06/22 12:32:17;;;;;;;11.48;6.05;;;26.00;90.70;;;;;;5044177;28;20462;-72
2023/06/22 12:34:44;;;;;;;6.72;5.32;;;26.00;91.40;;;;;;5055513;28;20052;-72